Aviation Digital Data Service (ADDS)

Output produced by TAFs form (1315 UTC 05 May 2015)
found at http://aviationweather.gov/adds/tafs/
 
KABQ 051150Z 0512/0612 18008KT P6SM SCT025 BKN040 
     FM051800 24010KT P6SM VCSH SCT050 BKN100 
     FM052200 27015G25KT P6SM VCTS BKN050CB 
     TEMPO 0522/0601 VRB25G35KT 6SM TSRA OVC040CB 
     FM060200 28011KT P6SM VCSH SCT025 BKN050 
     TEMPO 0608/0612 OVC025